createdAt,value
2023-01-27T00:00:04.161Z,0.00
2023-01-27T00:01:04.154Z,0.00
2023-01-27T00:02:04.156Z,0.00
2023-01-27T00:03:04.117Z,0.00
2023-01-27T00:04:04.172Z,0.00
2023-01-27T00:05:04.092Z,0.00
2023-01-27T00:06:04.054Z,0.00
2023-01-27T00:07:04.081Z,0.00
2023-01-27T00:08:04.163Z,0.00
2023-01-27T00:09:04.050Z,0.00
2023-01-27T00:10:04.007Z,0.00
2023-01-27T00:11:04.041Z,0.00
2023-01-27T00:12:04.010Z,0.00
2023-01-27T00:13:03.993Z,0.00
2023-01-27T00:14:03.962Z,0.00
2023-01-27T00:15:03.967Z,0.00
2023-01-27T00:16:04.029Z,0.00
2023-01-27T00:17:03.997Z,0.00
2023-01-27T00:18:03.925Z,0.00
2023-01-27T00:19:03.949Z,0.00
2023-01-27T00:20:04.154Z,0.00
2023-01-27T00:21:03.885Z,0.00
2023-01-27T00:22:03.949Z,0.00
2023-01-27T00:23:03.839Z,0.00
2023-01-27T00:24:03.914Z,0.00
2023-01-27T00:25:03.833Z,0.00
2023-01-27T00:26:03.827Z,0.00
2023-01-27T00:27:03.813Z,0.00
2023-01-27T00:28:03.813Z,0.00
2023-01-27T00:29:03.796Z,0.00
2023-01-27T00:30:03.796Z,0.00
2023-01-27T00:31:03.916Z,0.00
2023-01-27T00:32:03.758Z,0.00
2023-01-27T00:33:03.763Z,0.00
2023-01-27T00:34:03.737Z,0.00
2023-01-27T00:35:03.721Z,0.00
2023-01-27T00:36:03.719Z,0.00
2023-01-27T00:37:03.699Z,0.00
2023-01-27T00:38:03.688Z,0.00
2023-01-27T00:39:03.712Z,0.00
2023-01-27T00:40:03.654Z,0.00
2023-01-27T00:41:03.616Z,0.00
2023-01-27T00:42:03.652Z,0.00
2023-01-27T00:43:03.616Z,0.00
2023-01-27T00:44:03.608Z,0.00
2023-01-27T00:45:03.655Z,0.00
2023-01-27T00:46:03.598Z,0.00
2023-01-27T00:47:03.583Z,0.00
2023-01-27T00:48:03.537Z,0.00
2023-01-27T00:49:03.527Z,0.00
2023-01-27T00:50:03.700Z,0.00
2023-01-27T00:51:03.491Z,0.00
2023-01-27T00:52:03.479Z,0.00
2023-01-27T00:53:03.511Z,0.00
2023-01-27T00:54:03.516Z,0.00
2023-01-27T00:55:03.492Z,0.00
2023-01-27T00:56:03.459Z,0.00
2023-01-27T00:57:03.448Z,0.00
2023-01-27T00:58:03.608Z,0.00
2023-01-27T00:59:03.437Z,0.00
2023-01-27T01:00:03.420Z,0.00
2023-01-27T01:01:03.420Z,0.00
2023-01-27T01:02:03.405Z,0.00
2023-01-27T01:03:03.448Z,0.00
2023-01-27T01:04:03.366Z,0.00
2023-01-27T01:05:03.381Z,0.00
2023-01-27T01:06:03.346Z,0.00
2023-01-27T01:07:03.351Z,0.00
2023-01-27T01:08:03.288Z,0.00
2023-01-27T01:09:03.295Z,0.00
2023-01-27T01:10:03.398Z,0.00
2023-01-27T01:11:03.290Z,0.00
2023-01-27T01:12:03.235Z,0.00
2023-01-27T01:13:03.232Z,0.00
2023-01-27T01:14:03.229Z,0.00
2023-01-27T01:15:03.225Z,0.00
2023-01-27T01:16:03.234Z,0.00
2023-01-27T01:17:03.177Z,0.00
2023-01-27T01:18:03.158Z,0.00
2023-01-27T01:19:03.169Z,0.00
2023-01-27T01:20:03.134Z,0.00
2023-01-27T01:21:03.142Z,0.00
2023-01-27T01:22:04.904Z,0.00
2023-01-27T01:23:03.100Z,0.00
2023-01-27T01:24:03.153Z,0.00
2023-01-27T01:25:03.088Z,0.00
2023-01-27T01:26:03.072Z,0.00
2023-01-27T01:27:03.070Z,0.00
2023-01-27T01:28:03.067Z,0.00
2023-01-27T01:29:03.044Z,0.00
2023-01-27T01:30:03.029Z,0.00
2023-01-27T01:31:03.144Z,0.00
2023-01-27T01:32:03.032Z,0.00
2023-01-27T01:33:02.991Z,0.00
2023-01-27T01:34:03.013Z,0.00
2023-01-27T01:35:02.997Z,0.00
2023-01-27T01:36:02.946Z,0.00
2023-01-27T01:37:02.927Z,0.00
2023-01-27T01:38:02.946Z,0.00
2023-01-27T01:39:02.899Z,0.00
2023-01-27T01:40:02.928Z,0.00
2023-01-27T01:41:02.984Z,0.00
2023-01-27T01:42:02.867Z,0.00
2023-01-27T01:43:02.870Z,0.00
2023-01-27T01:44:02.863Z,0.00
2023-01-27T01:45:02.807Z,0.00
2023-01-27T01:46:02.838Z,0.00
2023-01-27T01:47:02.789Z,0.00
2023-01-27T01:48:02.824Z,0.00
2023-01-27T01:49:02.800Z,0.00
2023-01-27T01:50:02.808Z,0.00
2023-01-27T01:51:02.744Z,0.00
2023-01-27T01:52:02.749Z,0.00
2023-01-27T01:53:02.719Z,0.00
2023-01-27T01:54:02.735Z,0.00
2023-01-27T01:55:02.726Z,0.00
2023-01-27T01:56:02.705Z,0.00
2023-01-27T01:57:02.693Z,0.00
2023-01-27T01:58:09.653Z,0.00
2023-01-27T01:59:03.204Z,0.00
2023-01-27T02:00:02.636Z,0.00
2023-01-27T02:01:02.632Z,0.00
2023-01-27T02:02:02.645Z,0.00
2023-01-27T02:03:02.578Z,0.00
2023-01-27T02:04:02.637Z,0.00
2023-01-27T02:05:02.563Z,0.00
2023-01-27T02:06:02.567Z,0.00
2023-01-27T02:07:02.548Z,0.00
2023-01-27T02:08:02.531Z,0.00
2023-01-27T02:09:02.514Z,0.00
2023-01-27T02:10:02.495Z,0.00
2023-01-27T02:11:02.484Z,0.00
2023-01-27T02:12:02.472Z,0.00
2023-01-27T02:13:02.467Z,0.00
2023-01-27T02:14:02.468Z,0.00
2023-01-27T02:15:02.489Z,0.00
2023-01-27T02:16:02.422Z,0.00
2023-01-27T02:17:02.405Z,0.00
2023-01-27T02:18:02.569Z,0.00
2023-01-27T02:19:02.373Z,0.00
2023-01-27T02:20:02.381Z,0.00
2023-01-27T02:21:02.374Z,0.00
2023-01-27T02:22:02.358Z,0.00
2023-01-27T02:23:02.335Z,0.00
2023-01-27T02:24:02.567Z,0.00
2023-01-27T02:25:02.311Z,0.00
2023-01-27T02:26:02.289Z,0.00
2023-01-27T02:27:02.277Z,0.00
2023-01-27T02:28:02.275Z,0.00
2023-01-27T02:29:02.264Z,0.00
2023-01-27T02:30:02.261Z,0.00
2023-01-27T02:31:02.335Z,0.00
2023-01-27T02:32:02.226Z,0.00
2023-01-27T02:33:02.238Z,0.00
2023-01-27T02:34:02.188Z,0.00
2023-01-27T02:35:02.204Z,0.00
2023-01-27T02:36:02.174Z,0.00
2023-01-27T02:37:02.155Z,0.00
2023-01-27T02:38:02.174Z,0.00
2023-01-27T02:39:02.134Z,0.00
2023-01-27T02:40:02.156Z,0.00
2023-01-27T02:41:02.107Z,0.00
2023-01-27T02:42:02.118Z,0.00
2023-01-27T02:43:02.074Z,0.00
2023-01-27T02:44:02.102Z,0.00
2023-01-27T02:45:02.049Z,0.00
2023-01-27T02:46:02.138Z,0.00
2023-01-27T02:47:02.028Z,0.00
2023-01-27T02:48:02.010Z,0.00
2023-01-27T02:49:01.990Z,0.00
2023-01-27T02:50:02.013Z,0.00
2023-01-27T02:51:01.978Z,0.00
2023-01-27T02:52:01.995Z,0.00
2023-01-27T02:53:01.963Z,0.00
2023-01-27T02:54:01.967Z,0.00
2023-01-27T02:55:01.921Z,0.00
2023-01-27T02:56:01.937Z,0.00
2023-01-27T02:57:01.899Z,0.00
2023-01-27T02:58:01.886Z,0.00
2023-01-27T02:59:01.887Z,0.00
2023-01-27T03:00:01.878Z,0.00
2023-01-27T03:01:01.958Z,0.00
2023-01-27T03:02:01.842Z,0.00
2023-01-27T03:03:01.831Z,0.00
2023-01-27T03:04:01.829Z,0.00
2023-01-27T03:05:01.820Z,0.00
2023-01-27T03:06:01.832Z,0.00
2023-01-27T03:07:01.770Z,0.00
2023-01-27T03:08:01.767Z,0.00
2023-01-27T03:09:01.757Z,0.00
2023-01-27T03:10:01.769Z,0.00
2023-01-27T03:11:01.745Z,0.00
2023-01-27T03:12:01.714Z,0.00
2023-01-27T03:13:01.704Z,0.00
2023-01-27T03:14:01.688Z,0.00
2023-01-27T03:15:01.684Z,0.00
2023-01-27T03:16:01.694Z,0.00
2023-01-27T03:17:01.649Z,0.00
2023-01-27T03:18:01.641Z,0.00
2023-01-27T03:19:01.609Z,0.00
2023-01-27T03:20:01.613Z,0.00
2023-01-27T03:21:01.643Z,0.00
2023-01-27T03:22:01.606Z,0.00
2023-01-27T03:23:01.608Z,0.00
2023-01-27T03:24:01.623Z,0.00
2023-01-27T03:25:01.604Z,0.00
2023-01-27T03:26:01.571Z,0.00
2023-01-27T03:27:01.567Z,0.00
2023-01-27T03:28:01.582Z,0.00
2023-01-27T03:29:01.497Z,0.00
2023-01-27T03:30:01.503Z,0.00
2023-01-27T03:31:01.583Z,0.00
2023-01-27T03:32:01.472Z,0.00
2023-01-27T03:33:01.438Z,0.00
2023-01-27T03:34:01.443Z,0.00
2023-01-27T03:35:01.422Z,0.00
2023-01-27T03:36:01.417Z,0.00
2023-01-27T03:37:01.418Z,0.00
2023-01-27T03:38:01.394Z,0.00
2023-01-27T03:39:01.372Z,0.00
2023-01-27T03:40:01.376Z,0.00
2023-01-27T03:41:01.350Z,0.00
2023-01-27T03:42:01.340Z,0.00
2023-01-27T03:43:01.323Z,0.00
2023-01-27T03:44:01.349Z,0.00
2023-01-27T03:45:01.300Z,0.00
2023-01-27T03:46:01.365Z,0.00
2023-01-27T03:47:02.934Z,0.00
2023-01-27T03:48:01.257Z,0.00
2023-01-27T03:49:01.268Z,0.00
2023-01-27T03:50:01.354Z,0.00
2023-01-27T03:51:01.228Z,0.00
2023-01-27T03:52:01.219Z,0.00
2023-01-27T03:53:01.200Z,0.00
2023-01-27T03:54:01.177Z,0.00
2023-01-27T03:55:01.180Z,0.00
2023-01-27T03:56:01.157Z,0.00
2023-01-27T03:57:01.160Z,0.00
2023-01-27T03:58:01.128Z,0.00
2023-01-27T03:59:01.120Z,0.00
2023-01-27T04:00:01.127Z,0.00
2023-01-27T04:01:01.197Z,0.00
2023-01-27T04:02:01.095Z,0.00
2023-01-27T04:03:01.141Z,0.00
2023-01-27T04:04:01.068Z,0.00
2023-01-27T04:05:01.050Z,0.00
2023-01-27T04:06:01.036Z,0.00
2023-01-27T04:07:01.131Z,0.00
2023-01-27T04:08:01.006Z,0.00
2023-01-27T04:09:01.039Z,0.00
2023-01-27T04:10:00.991Z,0.00
2023-01-27T04:11:00.964Z,0.00
2023-01-27T04:12:00.962Z,0.00
2023-01-27T04:13:00.950Z,0.00
2023-01-27T04:14:00.942Z,0.00
2023-01-27T04:15:00.935Z,0.00
2023-01-27T04:16:00.918Z,0.00
2023-01-27T04:17:00.894Z,0.00
2023-01-27T04:18:00.898Z,0.00
2023-01-27T04:19:00.857Z,0.00
2023-01-27T04:20:00.871Z,0.00
2023-01-27T04:21:00.835Z,0.00
2023-01-27T04:22:00.842Z,0.00
2023-01-27T04:23:00.917Z,0.00
2023-01-27T04:24:00.884Z,0.00
2023-01-27T04:25:00.799Z,0.00
2023-01-27T04:26:00.784Z,0.00
2023-01-27T04:27:00.755Z,0.00
2023-01-27T04:28:00.780Z,0.00
2023-01-27T04:29:00.735Z,0.00
2023-01-27T04:30:00.748Z,0.00
2023-01-27T04:31:00.889Z,0.00
2023-01-27T04:32:00.705Z,0.00
2023-01-27T04:33:00.718Z,0.00
2023-01-27T04:34:00.691Z,0.00
2023-01-27T04:35:00.682Z,0.00
2023-01-27T04:36:00.645Z,0.00
2023-01-27T04:37:00.652Z,0.00
2023-01-27T04:38:00.624Z,0.00
2023-01-27T04:39:00.630Z,0.00
2023-01-27T04:40:00.594Z,0.00
2023-01-27T04:41:00.604Z,0.00
2023-01-27T04:42:00.590Z,0.00
2023-01-27T04:43:00.554Z,0.00
2023-01-27T04:44:00.578Z,0.00
2023-01-27T04:45:00.547Z,0.00
2023-01-27T04:46:00.558Z,0.00
2023-01-27T04:47:00.517Z,0.00
2023-01-27T04:48:00.496Z,0.00
2023-01-27T04:49:00.483Z,0.00
2023-01-27T04:50:00.485Z,0.00
2023-01-27T04:51:00.457Z,0.00
2023-01-27T04:52:00.457Z,0.00
2023-01-27T04:53:00.453Z,0.00
2023-01-27T04:54:00.438Z,0.00
2023-01-27T04:55:00.429Z,0.00
2023-01-27T04:56:00.410Z,0.00
2023-01-27T04:57:00.382Z,0.00
2023-01-27T04:58:00.381Z,0.00
2023-01-27T04:59:00.371Z,0.00
2023-01-27T05:00:00.426Z,0.00
2023-01-27T05:01:00.351Z,0.00
2023-01-27T05:02:00.373Z,0.00
2023-01-27T05:03:00.365Z,0.00
2023-01-27T05:04:00.299Z,0.00
2023-01-27T05:05:00.283Z,0.00
2023-01-27T05:06:00.317Z,0.00
2023-01-27T05:07:00.268Z,0.00
2023-01-27T05:08:00.247Z,0.00
2023-01-27T05:09:00.233Z,0.00
2023-01-27T05:10:00.233Z,0.00
2023-01-27T05:11:00.233Z,0.00
2023-01-27T05:12:00.197Z,0.00
2023-01-27T05:13:00.183Z,0.00
2023-01-27T05:14:00.176Z,0.00
2023-01-27T05:15:00.161Z,0.00
2023-01-27T05:16:00.243Z,0.00
2023-01-27T05:17:00.236Z,0.00
2023-01-27T05:18:00.129Z,0.00
2023-01-27T05:19:00.141Z,0.00
2023-01-27T05:20:00.147Z,0.00
2023-01-27T05:21:00.096Z,0.00
2023-01-27T05:22:00.128Z,0.00
2023-01-27T05:23:00.083Z,0.00
2023-01-27T05:24:00.079Z,0.00
2023-01-27T05:25:00.049Z,0.00
2023-01-27T05:26:00.037Z,0.00
2023-01-27T05:27:00.016Z,0.00
2023-01-27T05:28:00.019Z,0.00
2023-01-27T05:28:59.999Z,0.00
2023-01-27T05:29:59.962Z,0.00
2023-01-27T05:31:00.035Z,0.00
2023-01-27T05:32:00.044Z,0.00
2023-01-27T05:32:59.942Z,0.00
2023-01-27T05:33:59.943Z,0.00
2023-01-27T05:34:59.902Z,0.00
2023-01-27T05:35:59.900Z,0.00
2023-01-27T05:36:59.873Z,0.00
2023-01-27T05:37:59.872Z,0.00
2023-01-27T05:38:59.874Z,0.00
2023-01-27T05:39:59.854Z,0.00
2023-01-27T05:40:59.835Z,0.00
2023-01-27T05:41:59.818Z,0.00
2023-01-27T05:42:59.820Z,0.00
2023-01-27T05:43:59.823Z,0.00
2023-01-27T05:44:59.799Z,0.00
2023-01-27T05:45:59.762Z,0.00
2023-01-27T05:46:59.757Z,0.00
2023-01-27T05:47:59.734Z,0.00
2023-01-27T05:48:59.759Z,0.00
2023-01-27T05:49:59.725Z,0.00
2023-01-27T05:50:59.703Z,0.00
2023-01-27T05:51:59.697Z,0.00
2023-01-27T05:52:59.685Z,0.00
2023-01-27T05:53:59.685Z,0.00
2023-01-27T05:54:59.686Z,0.00
2023-01-27T05:55:59.634Z,0.00
2023-01-27T05:56:59.626Z,0.00
2023-01-27T05:57:59.612Z,0.00
2023-01-27T05:58:59.603Z,0.00
2023-01-27T05:59:59.605Z,0.00
2023-01-27T06:00:59.572Z,0.00
2023-01-27T06:01:59.740Z,0.00
2023-01-27T06:02:59.581Z,0.00
2023-01-27T06:03:59.556Z,0.00
2023-01-27T06:04:59.536Z,0.00
2023-01-27T06:05:59.516Z,0.00
2023-01-27T06:06:59.500Z,0.00
2023-01-27T06:07:59.483Z,0.00
2023-01-27T06:08:59.476Z,0.00
2023-01-27T06:09:59.460Z,0.00
2023-01-27T06:10:59.473Z,0.00
2023-01-27T06:11:59.430Z,0.00
2023-01-27T06:12:59.421Z,0.00
2023-01-27T06:13:59.417Z,0.00
2023-01-27T06:14:59.414Z,0.00
2023-01-27T06:15:59.416Z,0.00
2023-01-27T06:16:59.385Z,0.00
2023-01-27T06:17:59.374Z,0.00
2023-01-27T06:18:59.355Z,0.00
2023-01-27T06:19:59.345Z,0.00
2023-01-27T06:20:59.321Z,0.00
2023-01-27T06:21:59.352Z,0.00
2023-01-27T06:22:59.315Z,0.00
2023-01-27T06:23:59.340Z,0.00
2023-01-27T06:24:59.286Z,0.00
2023-01-27T06:25:59.273Z,0.00
2023-01-27T06:26:59.263Z,0.00
2023-01-27T06:27:59.240Z,0.00
2023-01-27T06:28:59.221Z,0.00
2023-01-27T06:29:59.204Z,0.00
2023-01-27T06:30:59.268Z,0.00
2023-01-27T06:31:59.204Z,0.00
2023-01-27T06:32:59.207Z,0.00
2023-01-27T06:33:59.160Z,0.00
2023-01-27T06:34:59.168Z,0.00
2023-01-27T06:35:59.144Z,0.00
2023-01-27T06:36:59.120Z,0.00
2023-01-27T06:37:59.155Z,0.00
2023-01-27T06:38:59.113Z,0.00
2023-01-27T06:39:59.094Z,0.00
2023-01-27T06:40:59.083Z,0.00
2023-01-27T06:41:59.107Z,0.00
2023-01-27T06:42:59.078Z,0.00
2023-01-27T06:43:59.039Z,0.00
2023-01-27T06:44:59.038Z,0.00
2023-01-27T06:45:59.060Z,0.00
2023-01-27T06:46:59.014Z,0.00
2023-01-27T06:47:58.995Z,0.00
2023-01-27T06:48:58.979Z,0.00
2023-01-27T06:49:58.969Z,0.00
2023-01-27T06:50:58.986Z,0.00
2023-01-27T06:51:58.944Z,0.00
2023-01-27T06:52:58.934Z,0.00
2023-01-27T06:53:58.916Z,0.00
2023-01-27T06:54:58.913Z,0.00
2023-01-27T06:55:58.897Z,0.00
2023-01-27T06:56:58.891Z,0.00
2023-01-27T06:57:58.877Z,0.00
2023-01-27T06:58:58.857Z,0.00
2023-01-27T06:59:58.838Z,0.00
2023-01-27T07:00:58.832Z,0.00
2023-01-27T07:01:58.832Z,5.62
2023-01-27T07:02:58.880Z,5.62
2023-01-27T07:03:58.799Z,5.62
2023-01-27T07:04:58.786Z,5.62
2023-01-27T07:05:58.786Z,5.62
2023-01-27T07:06:58.782Z,5.62
2023-01-27T07:07:58.761Z,5.62
2023-01-27T07:08:58.737Z,5.62
2023-01-27T07:09:58.734Z,5.62
2023-01-27T07:10:58.732Z,5.62
2023-01-27T07:11:58.699Z,5.62
2023-01-27T07:12:58.682Z,5.62
2023-01-27T07:13:58.672Z,5.62
2023-01-27T07:14:58.660Z,5.62
2023-01-27T07:15:58.661Z,5.62
2023-01-27T07:16:58.649Z,11.25
2023-01-27T07:17:58.630Z,11.25
2023-01-27T07:18:58.599Z,11.25
2023-01-27T07:19:58.601Z,11.25
2023-01-27T07:20:58.589Z,11.25
2023-01-27T07:21:58.557Z,11.25
2023-01-27T07:22:58.563Z,11.25
2023-01-27T07:23:58.609Z,11.25
2023-01-27T07:24:58.623Z,11.25
2023-01-27T07:26:00.865Z,11.25
2023-01-27T07:26:58.512Z,11.25
2023-01-27T07:27:58.526Z,16.88
2023-01-27T07:28:58.485Z,16.88
2023-01-27T07:29:58.456Z,16.88
2023-01-27T07:30:58.463Z,16.88
2023-01-27T07:31:58.459Z,16.88
2023-01-27T07:32:58.428Z,16.88
2023-01-27T07:33:58.409Z,16.88
2023-01-27T07:34:58.398Z,22.50
2023-01-27T07:35:58.398Z,22.50
2023-01-27T07:36:58.374Z,16.88
2023-01-27T07:37:58.378Z,22.50
2023-01-27T07:38:58.346Z,22.50
2023-01-27T07:39:58.359Z,22.50
2023-01-27T07:40:58.316Z,22.50
2023-01-27T07:41:58.308Z,22.50
2023-01-27T07:42:58.342Z,22.50
2023-01-27T07:43:58.279Z,22.50
2023-01-27T07:44:58.280Z,28.12
2023-01-27T07:45:58.282Z,28.12
2023-01-27T07:46:58.260Z,28.12
2023-01-27T07:47:58.231Z,28.12
2023-01-27T07:48:58.228Z,28.12
2023-01-27T07:49:58.228Z,28.12
2023-01-27T07:50:58.199Z,28.12
2023-01-27T07:51:58.175Z,28.12
2023-01-27T07:52:58.187Z,28.12
2023-01-27T07:53:59.002Z,33.75
2023-01-27T07:54:58.163Z,33.75
2023-01-27T07:55:58.140Z,33.75
2023-01-27T07:56:58.116Z,33.75
2023-01-27T07:58:05.152Z,33.75
2023-01-27T07:58:58.098Z,33.75
2023-01-27T07:59:58.103Z,33.75
2023-01-27T08:00:58.114Z,33.75
2023-01-27T08:01:58.059Z,33.75
2023-01-27T08:02:58.180Z,33.75
2023-01-27T08:03:58.051Z,33.75
2023-01-27T08:04:58.040Z,33.75
2023-01-27T08:05:58.008Z,33.75
2023-01-27T08:06:58.008Z,33.75
2023-01-27T08:07:59.107Z,39.38
2023-01-27T08:08:57.991Z,39.38
2023-01-27T08:09:57.973Z,39.38
2023-01-27T08:10:57.972Z,39.38
2023-01-27T08:11:57.937Z,39.38
2023-01-27T08:12:57.964Z,39.38
2023-01-27T08:13:57.951Z,45.00
2023-01-27T08:14:57.897Z,45.00
2023-01-27T08:15:57.889Z,45.00
2023-01-27T08:16:57.893Z,45.00
2023-01-27T08:17:57.879Z,50.62
2023-01-27T08:18:57.877Z,45.00
2023-01-27T08:19:57.832Z,45.00
2023-01-27T08:20:57.857Z,45.00
2023-01-27T08:21:57.829Z,45.00
2023-01-27T08:22:57.810Z,50.62
2023-01-27T08:23:57.816Z,56.25
2023-01-27T08:24:57.774Z,56.25
2023-01-27T08:25:57.761Z,56.25
2023-01-27T08:26:57.775Z,50.62
2023-01-27T08:27:57.754Z,56.25
2023-01-27T08:28:57.741Z,56.25
2023-01-27T08:29:57.720Z,56.25
2023-01-27T08:30:57.753Z,56.25
2023-01-27T08:31:57.728Z,50.62
2023-01-27T08:32:57.699Z,50.62
2023-01-27T08:33:57.709Z,56.25
2023-01-27T08:34:57.655Z,56.25
2023-01-27T08:35:57.628Z,61.88
2023-01-27T08:36:57.813Z,56.25
2023-01-27T08:37:57.608Z,61.88
2023-01-27T08:38:57.615Z,67.50
2023-01-27T08:39:57.583Z,67.50
2023-01-27T08:40:57.581Z,67.50
2023-01-27T08:41:57.563Z,67.50
2023-01-27T08:42:57.580Z,61.88
2023-01-27T08:43:57.541Z,61.88
2023-01-27T08:44:57.530Z,61.88
2023-01-27T08:45:57.584Z,61.88
2023-01-27T08:46:57.527Z,56.25
2023-01-27T08:47:57.490Z,61.88
2023-01-27T08:48:57.496Z,56.25
2023-01-27T08:49:57.461Z,56.25
2023-01-27T08:50:57.460Z,61.88
2023-01-27T08:51:57.441Z,56.25
2023-01-27T08:52:57.417Z,56.25
2023-01-27T08:53:57.430Z,56.25
2023-01-27T08:54:57.496Z,56.25
2023-01-27T08:55:57.397Z,56.25
2023-01-27T08:56:57.369Z,61.88
2023-01-27T08:57:57.374Z,61.88
2023-01-27T08:58:57.359Z,61.88
2023-01-27T08:59:57.330Z,67.50
2023-01-27T09:00:57.445Z,73.12
2023-01-27T09:01:57.329Z,73.12
2023-01-27T09:02:57.302Z,73.12
2023-01-27T09:03:57.291Z,78.75
2023-01-27T09:04:57.269Z,84.38
2023-01-27T09:05:57.271Z,78.75
2023-01-27T09:06:57.270Z,90.00
2023-01-27T09:07:57.231Z,90.00
2023-01-27T09:08:57.240Z,101.25
2023-01-27T09:10:12.735Z,90.00
2023-01-27T09:10:58.229Z,95.62
2023-01-27T09:11:57.208Z,101.25
2023-01-27T09:12:57.165Z,101.25
2023-01-27T09:13:57.168Z,101.25
2023-01-27T09:14:57.136Z,90.00
2023-01-27T09:15:57.195Z,101.25
2023-01-27T09:16:57.130Z,101.25
2023-01-27T09:17:57.118Z,95.62
2023-01-27T09:18:57.088Z,95.62
2023-01-27T09:19:57.099Z,101.25
2023-01-27T09:20:57.073Z,95.62
2023-01-27T09:21:57.071Z,95.62
2023-01-27T09:22:57.048Z,84.38
2023-01-27T09:23:57.175Z,84.38
2023-01-27T09:24:57.020Z,84.38
2023-01-27T09:25:57.014Z,78.75
2023-01-27T09:26:57.727Z,73.12
2023-01-27T09:27:56.993Z,73.12
2023-01-27T09:28:56.981Z,67.50
2023-01-27T09:29:56.959Z,67.50
2023-01-27T09:30:56.976Z,67.50
2023-01-27T09:31:57.000Z,67.50
2023-01-27T09:32:56.906Z,61.88
2023-01-27T09:33:56.932Z,73.12
2023-01-27T09:34:56.904Z,73.12
2023-01-27T09:35:56.900Z,73.12
2023-01-27T09:36:56.876Z,78.75
2023-01-27T09:37:56.853Z,84.38
2023-01-27T09:38:56.840Z,90.00
2023-01-27T09:39:56.838Z,78.75
2023-01-27T09:40:56.839Z,84.38
2023-01-27T09:41:56.808Z,90.00
2023-01-27T09:42:56.788Z,90.00
2023-01-27T09:43:56.765Z,101.25
2023-01-27T09:44:56.768Z,101.25
2023-01-27T09:45:56.817Z,101.25
2023-01-27T09:46:59.552Z,95.62
2023-01-27T09:47:56.730Z,90.00
2023-01-27T09:48:56.705Z,101.25
2023-01-27T09:49:56.715Z,95.62
2023-01-27T09:50:56.686Z,95.62
2023-01-27T09:51:56.679Z,101.25
2023-01-27T09:52:56.649Z,95.62
2023-01-27T09:53:56.636Z,101.25
2023-01-27T09:54:56.624Z,95.62
2023-01-27T09:55:56.626Z,95.62
2023-01-27T09:56:56.619Z,90.00
2023-01-27T09:57:56.583Z,84.38
2023-01-27T09:58:56.581Z,84.38
2023-01-27T09:59:56.588Z,78.75
2023-01-27T10:00:56.555Z,84.38
2023-01-27T10:01:56.536Z,84.38
2023-01-27T10:02:56.542Z,90.00
2023-01-27T10:03:56.521Z,106.88
2023-01-27T10:04:56.602Z,101.25
2023-01-27T10:05:56.503Z,101.25
2023-01-27T10:06:56.511Z,101.25
2023-01-27T10:07:56.465Z,106.88
2023-01-27T10:08:56.484Z,101.25
2023-01-27T10:09:56.449Z,95.62
2023-01-27T10:10:56.445Z,95.62
2023-01-27T10:11:56.435Z,95.62
2023-01-27T10:12:56.408Z,90.00
2023-01-27T10:13:56.408Z,95.62
2023-01-27T10:14:56.375Z,101.25
2023-01-27T10:15:56.388Z,95.62
2023-01-27T10:16:56.353Z,95.62
2023-01-27T10:17:56.346Z,101.25
2023-01-27T10:18:56.480Z,90.00
2023-01-27T10:19:56.327Z,95.62
2023-01-27T10:20:56.311Z,101.25
2023-01-27T10:21:58.175Z,95.62
2023-01-27T10:22:56.283Z,101.25
2023-01-27T10:23:56.314Z,101.25
2023-01-27T10:24:56.278Z,101.25
2023-01-27T10:25:56.249Z,112.50
2023-01-27T10:26:56.241Z,112.50
2023-01-27T10:27:56.269Z,112.50
2023-01-27T10:28:56.215Z,118.12
2023-01-27T10:29:56.192Z,123.75
2023-01-27T10:30:56.239Z,129.38
2023-01-27T10:31:56.250Z,140.62
2023-01-27T10:32:56.151Z,140.62
2023-01-27T10:33:56.138Z,135.00
2023-01-27T10:34:56.127Z,135.00
2023-01-27T10:35:56.114Z,140.62
2023-01-27T10:36:56.094Z,140.62
2023-01-27T10:37:56.092Z,140.62
2023-01-27T10:38:56.065Z,135.00
2023-01-27T10:39:56.055Z,140.62
2023-01-27T10:40:56.068Z,146.25
2023-01-27T10:41:56.036Z,140.62
2023-01-27T10:42:56.021Z,157.50
2023-01-27T10:43:56.004Z,168.75
2023-01-27T10:44:56.090Z,180.00
2023-01-27T10:45:56.011Z,174.38
2023-01-27T10:46:56.105Z,185.62
2023-01-27T10:47:55.974Z,180.00
2023-01-27T10:48:55.937Z,191.25
2023-01-27T10:49:55.947Z,202.50
2023-01-27T10:50:55.925Z,219.38
2023-01-27T10:51:55.914Z,208.12
2023-01-27T10:52:55.884Z,213.75
2023-01-27T10:53:55.874Z,219.38
2023-01-27T10:54:55.855Z,225.00
2023-01-27T10:55:55.864Z,202.50
2023-01-27T10:56:55.843Z,191.25
2023-01-27T10:57:55.919Z,196.88
2023-01-27T10:58:55.814Z,213.75
2023-01-27T11:00:21.953Z,213.75
2023-01-27T11:01:56.814Z,208.12
2023-01-27T11:02:55.802Z,225.00
2023-01-27T11:03:55.843Z,196.88
2023-01-27T11:04:55.759Z,208.12
2023-01-27T11:05:55.754Z,208.12
2023-01-27T11:06:55.718Z,202.50
2023-01-27T11:07:55.718Z,202.50
2023-01-27T11:08:55.684Z,185.62
2023-01-27T11:09:55.687Z,196.88
2023-01-27T11:10:55.692Z,196.88
2023-01-27T11:11:55.644Z,180.00
2023-01-27T11:12:55.667Z,168.75
2023-01-27T11:13:55.656Z,163.12
2023-01-27T11:14:55.619Z,151.88
2023-01-27T11:15:55.617Z,135.00
2023-01-27T11:16:55.591Z,140.62
2023-01-27T11:17:55.590Z,140.62
2023-01-27T11:18:55.567Z,135.00
2023-01-27T11:19:55.556Z,135.00
2023-01-27T11:20:55.534Z,129.38
2023-01-27T11:22:06.623Z,140.62
2023-01-27T11:22:56.505Z,140.62
2023-01-27T11:23:55.525Z,140.62
2023-01-27T11:24:55.529Z,140.62
2023-01-27T11:25:55.473Z,140.62
2023-01-27T11:26:55.457Z,123.75
2023-01-27T11:27:55.445Z,129.38
2023-01-27T11:28:55.464Z,151.88
2023-01-27T11:29:55.464Z,157.50
2023-01-27T11:30:55.432Z,163.12
2023-01-27T11:31:55.454Z,163.12
2023-01-27T11:32:55.399Z,174.38
2023-01-27T11:33:55.374Z,180.00
2023-01-27T11:34:55.354Z,180.00
2023-01-27T11:35:55.358Z,180.00
2023-01-27T11:36:55.378Z,174.38
2023-01-27T11:38:06.330Z,174.38
2023-01-27T11:38:56.306Z,168.75
2023-01-27T11:39:55.352Z,157.50
2023-01-27T11:40:55.306Z,140.62
2023-01-27T11:41:55.286Z,140.62
2023-01-27T11:42:55.267Z,151.88
2023-01-27T11:43:55.259Z,151.88
2023-01-27T11:44:55.233Z,146.25
2023-01-27T11:45:55.289Z,146.25
2023-01-27T11:46:55.212Z,146.25
2023-01-27T11:47:55.208Z,151.88
2023-01-27T11:48:55.188Z,146.25
2023-01-27T11:49:55.177Z,163.12
2023-01-27T11:50:55.168Z,163.12
2023-01-27T11:51:55.161Z,168.75
2023-01-27T11:52:55.124Z,168.75
2023-01-27T11:53:55.128Z,157.50
2023-01-27T11:54:55.174Z,157.50
2023-01-27T11:55:55.137Z,157.50
2023-01-27T11:56:55.079Z,151.88
2023-01-27T11:57:55.082Z,146.25
2023-01-27T11:58:55.055Z,151.88
2023-01-27T11:59:55.068Z,146.25
2023-01-27T12:00:55.038Z,135.00
2023-01-27T12:01:55.028Z,123.75
2023-01-27T12:02:55.011Z,112.50
2023-01-27T12:03:55.025Z,112.50
2023-01-27T12:04:55.067Z,112.50
2023-01-27T12:05:54.965Z,123.75
2023-01-27T12:06:55.007Z,123.75
2023-01-27T12:07:54.958Z,118.12
2023-01-27T12:08:54.940Z,106.88
2023-01-27T12:09:54.927Z,129.38
2023-01-27T12:10:54.905Z,140.62
2023-01-27T12:11:54.906Z,140.62
2023-01-27T12:12:54.912Z,157.50
2023-01-27T12:13:54.869Z,163.12
2023-01-27T12:14:54.918Z,151.88
2023-01-27T12:15:54.945Z,146.25
2023-01-27T12:16:54.859Z,157.50
2023-01-27T12:17:54.835Z,163.12
2023-01-27T12:18:54.816Z,163.12
2023-01-27T12:19:54.797Z,151.88
2023-01-27T12:20:54.777Z,151.88
2023-01-27T12:21:54.763Z,140.62
2023-01-27T12:22:54.776Z,135.00
2023-01-27T12:23:54.765Z,123.75
2023-01-27T12:24:54.750Z,118.12
2023-01-27T12:25:54.713Z,112.50
2023-01-27T12:26:54.693Z,123.75
2023-01-27T12:27:54.708Z,118.12
2023-01-27T12:28:54.677Z,118.12
2023-01-27T12:29:54.689Z,106.88
2023-01-27T12:30:54.677Z,95.62
2023-01-27T12:31:54.773Z,95.62
2023-01-27T12:32:54.633Z,95.62
2023-01-27T12:33:54.620Z,95.62
2023-01-27T12:34:54.646Z,95.62
2023-01-27T12:35:54.582Z,95.62
2023-01-27T12:36:54.586Z,90.00
2023-01-27T12:37:54.562Z,90.00
2023-01-27T12:38:54.556Z,95.62
2023-01-27T12:39:54.567Z,90.00
2023-01-27T12:40:54.543Z,95.62
2023-01-27T12:41:54.514Z,101.25
2023-01-27T12:42:54.493Z,95.62
2023-01-27T12:43:54.502Z,90.00
2023-01-27T12:44:54.490Z,90.00
2023-01-27T12:45:54.478Z,90.00
2023-01-27T12:46:54.463Z,84.38
2023-01-27T12:47:54.450Z,90.00
2023-01-27T12:48:54.418Z,95.62
2023-01-27T12:49:54.421Z,84.38
2023-01-27T12:50:54.427Z,78.75
2023-01-27T12:51:54.392Z,84.38
2023-01-27T12:52:54.373Z,84.38
2023-01-27T12:53:54.357Z,84.38
2023-01-27T12:54:54.342Z,84.38
2023-01-27T12:55:54.357Z,90.00
2023-01-27T12:56:54.362Z,95.62
2023-01-27T12:57:54.303Z,101.25
2023-01-27T12:58:54.329Z,101.25
2023-01-27T12:59:54.286Z,101.25
2023-01-27T13:00:54.288Z,106.88
2023-01-27T13:01:54.313Z,101.25